Time;durP1;ratioP1;P1;durP2;ratioP2;P2;SDS_P1;SDS_P2;PMS_P1;PMS_P2;Temp;Humidity;BMP_temperature;BMP_pressure;BME280_temperature;BME280_humidity;BME280_pressure;Samples;Min_cycle;Max_cycle;Signal;HPM_P1;HPM_P2
2022/01/09 00:00:16;;;;;;;3.78;1.45;;;;;;;4.67;71.73;97809.00;1087575;54;20031;-80
2022/01/09 00:01:22;;;;;;;5.72;1.83;;;;;;;4.70;71.77;97803.38;1087461;54;20034;-81
2022/01/09 00:02:23;;;;;;;3.75;1.60;;;;;;;4.71;71.76;97802.41;1087603;54;20059;-82
2022/01/09 00:03:27;;;;;;;3.20;1.40;;;;;;;4.71;71.70;97807.69;1087482;54;20038;-80
2022/01/09 00:04:29;;;;;;;4.15;1.73;;;;;;;4.76;71.47;97797.44;1087378;54;20041;-80
2022/01/09 00:05:33;;;;;;;6.13;1.98;;;;;;;4.77;71.65;97799.09;1087254;54;20034;-80
2022/01/09 00:06:37;;;;;;;3.78;1.20;;;;;;;4.70;72.03;97800.75;1087582;39;20524;-80
2022/01/09 00:07:39;;;;;;;4.32;1.65;;;;;;;4.75;71.86;97793.13;1087038;54;20038;-81
2022/01/09 00:08:44;;;;;;;3.80;1.30;;;;;;;4.74;71.98;97791.47;1087502;54;20062;-80
2022/01/09 00:09:45;;;;;;;4.07;1.40;;;;;;;4.76;71.97;97792.13;1087252;54;20122;-81
2022/01/09 00:10:51;;;;;;;3.88;1.58;;;;;;;4.69;72.11;97788.50;1087036;54;20781;-80
2022/01/09 00:11:52;;;;;;;4.05;1.50;;;;;;;4.72;72.28;97790.81;1087539;54;20098;-83
2022/01/09 00:12:58;;;;;;;4.10;1.60;;;;;;;4.75;71.97;97787.00;1088035;46;20059;-81
2022/01/09 00:13:59;;;;;;;3.30;1.23;;;;;;;4.77;71.86;97782.38;1087677;54;20065;-82
2022/01/09 00:15:04;;;;;;;4.00;1.30;;;;;;;4.73;72.41;97786.34;1087442;54;20083;-83
2022/01/09 00:16:11;;;;;;;4.75;1.40;;;;;;;4.74;72.39;97777.41;1087882;54;20054;-83
2022/01/09 00:17:13;;;;;;;4.60;1.73;;;;;;;4.74;72.92;97780.88;1087803;54;20034;-83
2022/01/09 00:18:17;;;;;;;3.60;1.50;;;;;;;4.80;72.49;97776.75;1087696;54;20031;-82
2022/01/09 00:19:19;;;;;;;4.75;1.83;;;;;;;4.75;72.83;97782.53;1087581;54;20038;-82
2022/01/09 00:20:23;;;;;;;4.03;1.40;;;;;;;4.74;72.95;97783.53;1087683;54;20035;-82
2022/01/09 00:21:25;;;;;;;4.32;1.42;;;;;;;4.60;73.97;97781.53;1087757;54;20034;-81
2022/01/09 00:22:35;;;;;;;3.53;1.33;;;;;;;4.71;73.42;97775.94;1087619;54;20037;-81
2022/01/09 00:23:37;;;;;;;;;;;;;;;4.73;73.56;97778.41;1088048;54;20043;-83
2022/01/09 00:24:41;;;;;;;4.20;1.70;;;;;;;4.67;73.48;97771.94;1087625;54;19954;-81
2022/01/09 00:25:42;;;;;;;3.95;1.42;;;;;;;4.69;73.70;97764.66;1087718;54;20038;-81
2022/01/09 00:26:46;;;;;;;3.20;1.35;;;;;;;4.79;73.23;97765.34;1087618;54;20030;-81
2022/01/09 00:27:50;;;;;;;3.20;1.30;;;;;;;4.86;72.97;97764.69;1087696;54;20057;-82
2022/01/09 00:28:54;;;;;;;4.28;1.40;;;;;;;4.83;73.34;97765.84;1087718;54;20026;-81
2022/01/09 00:29:55;;;;;;;3.78;1.23;;;;;;;4.82;73.54;97770.28;1087639;54;20097;-82
2022/01/09 00:30:59;;;;;;;2.53;1.00;;;;;;;4.87;73.48;97761.84;1089207;47;20026;-82
2022/01/09 00:32:04;;;;;;;3.60;1.38;;;;;;;4.78;73.93;97753.09;1087674;54;20063;-85
2022/01/09 00:33:09;;;;;;;3.60;1.20;;;;;;;4.83;74.05;97761.38;1087536;54;20038;-83
2022/01/09 00:34:10;;;;;;;4.47;1.58;;;;;;;4.87;73.85;97764.50;1093814;39;20634;-83
2022/01/09 00:35:16;;;;;;;2.88;1.20;;;;;;;4.82;74.13;97759.72;1088003;54;20038;-82
2022/01/09 00:36:17;;;;;;;3.65;1.30;;;;;;;4.82;73.97;97749.13;1087746;54;20018;-82
2022/01/09 00:37:22;;;;;;;3.15;1.25;;;;;;;4.85;74.13;97750.63;1087581;54;20065;-81
2022/01/09 00:38:26;;;;;;;3.58;1.45;;;;;;;4.87;74.27;97750.47;1087764;54;20111;-82
2022/01/09 00:39:27;;;;;;;3.05;1.25;;;;;;;4.79;75.04;97754.75;1089012;39;20705;-83
2022/01/09 00:40:31;;;;;;;2.95;1.10;;;;;;;4.77;75.17;97750.63;1087519;39;20682;-82
2022/01/09 00:41:34;;;;;;;3.70;1.23;;;;;;;4.78;75.11;97753.09;1087555;54;20034;-82
2022/01/09 00:42:38;;;;;;;2.63;1.00;;;;;;;4.84;74.99;97744.50;1089564;39;20700;-81
2022/01/09 00:43:40;;;;;;;2.97;0.98;;;;;;;4.89;74.86;97740.53;1087574;54;20048;-82
2022/01/09 00:44:44;;;;;;;3.55;1.23;;;;;;;4.90;74.99;97740.34;1087272;54;20038;-84
2022/01/09 00:45:48;;;;;;;2.72;1.15;;;;;;;4.73;76.08;97751.94;1089212;47;20042;-83
2022/01/09 00:46:50;;;;;;;3.17;1.17;;;;;;;4.87;75.55;97739.88;1087604;54;20046;-82
2022/01/09 00:47:57;;;;;;;3.17;1.35;;;;;;;4.88;75.67;97741.53;1087451;54;20058;-82
2022/01/09 00:48:58;;;;;;;2.78;0.95;;;;;;;4.81;76.25;97736.91;1087502;54;20102;-81
2022/01/09 00:50:05;;;;;;;2.80;1.00;;;;;;;4.87;75.86;97727.44;1088773;47;20058;-83
2022/01/09 00:51:09;;;;;;;2.90;1.00;;;;;;;4.89;76.05;97725.47;1087877;54;20038;-81
2022/01/09 00:52:10;;;;;;;2.75;1.13;;;;;;;4.89;75.95;97736.06;1087768;54;20046;-81
2022/01/09 00:53:14;;;;;;;3.00;1.00;;;;;;;4.92;76.20;97726.94;1087864;54;20014;-81
2022/01/09 00:54:16;;;;;;;2.33;0.80;;;;;;;4.86;76.16;97717.88;1087840;54;20015;-82
2022/01/09 00:55:20;;;;;;;4.13;0.90;;;;;;;4.84;76.62;97733.91;1087844;54;20041;-81
2022/01/09 00:56:22;;;;;;;2.92;0.85;;;;;;;4.87;76.72;97735.38;1087724;54;20062;-80
2022/01/09 00:57:26;;;;;;;2.20;0.90;;;;;;;4.83;76.76;97724.31;1087955;54;20055;-82
2022/01/09 00:58:28;;;;;;;4.47;0.88;;;;;;;4.86;76.73;97722.31;1087804;54;20042;-80
2022/01/09 00:59:32;;;;;;;2.15;0.90;;;;;;;4.91;76.47;97722.66;1090430;39;20709;-81
2022/01/09 01:00:39;;;;;;;3.22;1.08;;;;;;;4.78;77.20;97723.13;1087794;54;20040;-80
2022/01/09 01:01:43;;;;;;;4.22;1.13;;;;;;;4.84;77.27;97710.06;1087679;54;20034;-81
2022/01/09 01:02:48;;;;;;;3.42;1.02;;;;;;;4.86;77.09;97709.94;1087907;54;20057;-82
2022/01/09 01:03:52;;;;;;;2.47;1.00;;;;;;;4.90;76.97;97713.06;1088009;54;20035;-83
2022/01/09 01:04:56;;;;;;;3.38;1.08;;;;;;;4.83;77.43;97708.41;1088102;54;20057;-84
2022/01/09 01:05:58;;;;;;;2.20;0.75;;;;;;;4.83;77.34;97704.94;1088027;54;20039;-83
2022/01/09 01:07:03;;;;;;;3.38;1.08;;;;;;;4.86;77.65;97696.69;1087986;54;20039;-81
2022/01/09 01:08:07;;;;;;;3.80;1.10;;;;;;;4.84;77.67;97693.38;1088038;54;20046;-82
2022/01/09 01:09:09;;;;;;;3.47;1.00;;;;;;;4.96;77.00;97696.50;1087820;54;20035;-81
2022/01/09 01:10:14;;;;;;;2.50;0.88;;;;;;;4.99;76.88;97702.28;1088226;54;20030;-82
2022/01/09 01:11:16;;;;;;;3.55;1.13;;;;;;;4.81;77.93;97697.19;1088151;54;20034;-82
2022/01/09 01:12:20;;;;;;;2.25;0.90;;;;;;;4.79;78.44;97691.22;1088107;54;20086;-82
2022/01/09 01:13:24;;;;;;;2.15;0.73;;;;;;;4.90;78.09;97692.69;1088105;54;20034;-82
2022/01/09 01:14:29;;;;;;;3.80;0.80;;;;;;;4.90;78.00;97687.41;1088146;54;20027;-82
2022/01/09 01:15:34;;;;;;;2.70;0.85;;;;;;;4.93;77.88;97683.59;1088114;54;20030;-81
2022/01/09 01:16:35;;;;;;;1.73;0.70;;;;;;;5.03;77.64;97678.94;1087898;54;20034;-81
2022/01/09 01:17:40;;;;;;;3.13;0.88;;;;;;;4.94;77.96;97686.09;1087981;54;20018;-82
2022/01/09 01:18:44;;;;;;;2.55;0.80;;;;;;;4.93;78.34;97680.94;1087895;54;20042;-81
2022/01/09 01:19:52;;;;;;;1.52;0.70;;;;;;;5.00;78.13;97674.00;1088703;46;20057;-82
2022/01/09 01:21:03;;;;;;;1.40;0.57;;;;;;;4.95;78.16;97673.66;1088076;54;20031;-82
2022/01/09 01:22:07;;;;;;;1.40;0.50;;;;;;;4.93;77.96;97676.50;1088383;46;20035;-82
2022/01/09 01:23:19;;;;;;;2.03;0.60;;;;;;;4.93;78.36;97673.00;1088143;54;20042;-84
2022/01/09 01:24:22;;;;;;;2.95;0.70;;;;;;;4.96;78.48;97683.25;1087872;54;20030;-80
2022/01/09 01:25:26;;;;;;;3.50;0.70;;;;;;;4.89;78.29;97669.06;1087759;54;20041;-81
2022/01/09 01:26:27;;;;;;;1.67;0.65;;;;;;;4.94;78.57;97679.94;1087809;54;20069;-80
2022/01/09 01:27:32;;;;;;;1.52;0.60;;;;;;;5.06;78.19;97677.78;1087816;54;20750;-81
2022/01/09 01:28:34;;;;;;;1.70;0.60;;;;;;;5.07;77.82;97671.50;1087879;54;20046;-82
2022/01/09 01:29:40;;;;;;;0.90;0.40;;;;;;;5.03;78.07;97665.72;1087845;54;20129;-82
2022/01/09 01:30:44;;;;;;;1.60;0.60;;;;;;;5.00;78.30;97671.34;1087770;54;20038;-81
2022/01/09 01:31:46;;;;;;;1.67;0.65;;;;;;;5.09;77.87;97670.34;1087773;54;20061;-81
2022/01/09 01:32:50;;;;;;;1.70;0.50;;;;;;;5.16;77.34;97665.19;1087797;54;20033;-80
2022/01/09 01:33:52;;;;;;;1.67;0.50;;;;;;;5.11;77.38;97664.88;1087764;54;20706;-81
2022/01/09 01:35:05;;;;;;;1.98;0.50;;;;;;;5.13;77.70;97661.06;1087857;54;20094;-82
2022/01/09 01:36:07;;;;;;;1.45;0.50;;;;;;;5.04;77.73;97662.06;1088028;54;20037;-82
2022/01/09 01:37:11;;;;;;;1.42;0.55;;;;;;;5.15;77.64;97668.81;1087938;54;20037;-83
2022/01/09 01:38:15;;;;;;;1.20;0.50;;;;;;;5.17;77.46;97661.53;1087992;54;20034;-81
2022/01/09 01:39:19;;;;;;;0.75;0.40;;;;;;;5.24;77.06;97659.06;1088691;46;20025;-83
2022/01/09 01:40:23;;;;;;;0.90;0.40;;;;;;;5.12;77.55;97659.41;1088049;54;20663;-83
2022/01/09 01:41:27;;;;;;;1.10;0.40;;;;;;;5.20;77.00;97665.69;1089389;46;20086;-83
2022/01/09 01:42:34;;;;;;;1.70;0.50;;;;;;;5.27;77.01;97666.69;1089066;46;20797;-83
2022/01/09 01:43:38;;;;;;;0.95;0.43;;;;;;;5.21;76.97;97660.22;1088062;54;20034;-82
2022/01/09 01:44:42;;;;;;;1.92;0.40;;;;;;;5.22;76.96;97655.75;1088149;54;20030;-81
2022/01/09 01:45:54;;;;;;;1.55;0.50;;;;;;;5.20;76.80;97663.03;1088070;54;20026;-84
2022/01/09 01:46:55;;;;;;;1.38;0.40;;;;;;;5.23;76.85;97660.03;1087942;54;20061;-81
2022/01/09 01:48:06;;;;;;;0.88;0.40;;;;;;;5.25;76.63;97652.75;1087760;54;20027;-81
2022/01/09 01:49:12;;;;;;;0.98;0.43;;;;;;;5.23;76.78;97670.66;1088027;54;20019;-83
2022/01/09 01:50:17;;;;;;;1.50;0.47;;;;;;;5.27;76.40;97661.38;1088107;54;20030;-81
2022/01/09 01:51:23;;;;;;;1.35;0.40;;;;;;;5.31;76.49;97638.81;1087899;54;20038;-82
2022/01/09 01:52:29;;;;;;;1.27;0.50;;;;;;;5.35;75.93;97645.47;1087874;54;20057;-82
2022/01/09 01:53:33;;;;;;;1.38;0.47;;;;;;;5.26;76.41;97649.94;1087727;54;20034;-82
2022/01/09 01:54:35;;;;;;;1.98;0.50;;;;;;;5.14;76.61;97653.97;1087692;54;20050;-82
2022/01/09 01:55:41;;;;;;;0.65;0.28;;;;;;;5.21;76.54;97662.03;1087840;54;20046;-84
2022/01/09 01:56:42;;;;;;;1.10;0.30;;;;;;;5.25;76.07;97647.47;1087723;54;20042;-82
2022/01/09 01:57:47;;;;;;;1.80;0.75;;;;;;;5.24;76.31;97646.63;1087685;54;20030;-83
2022/01/09 01:58:50;;;;;;;0.60;0.30;;;;;;;5.24;76.07;97651.94;1087750;54;20046;-83
2022/01/09 01:59:54;;;;;;;0.95;0.40;;;;;;;5.35;75.72;97652.56;1087762;54;20065;-82
2022/01/09 02:00:56;;;;;;;1.83;0.40;;;;;;;5.28;75.77;97652.44;1087794;54;20023;-83
2022/01/09 02:02:02;;;;;;;1.67;0.50;;;;;;;5.40;75.51;97642.28;1087473;54;20022;-83
2022/01/09 02:03:04;;;;;;;0.47;0.30;;;;;;;5.32;75.79;97643.13;1087853;54;20026;-83
2022/01/09 02:04:08;;;;;;;1.38;0.45;;;;;;;5.37;75.40;97646.13;1088671;39;20727;-82
2022/01/09 02:05:11;;;;;;;0.63;0.30;;;;;;;5.42;75.71;97633.16;1088305;39;20548;-82
2022/01/09 02:06:18;;;;;;;0.52;0.30;;;;;;;5.42;75.73;97637.66;1087651;54;20031;-82
2022/01/09 02:07:19;;;;;;;1.52;0.30;;;;;;;5.44;75.51;97638.28;1087771;54;20050;-82
2022/01/09 02:08:23;;;;;;;0.70;0.30;;;;;;;5.48;75.25;97644.91;1087706;54;20046;-81
2022/01/09 02:09:25;;;;;;;1.38;0.50;;;;;;;5.40;75.52;97640.47;1087778;54;20062;-83
2022/01/09 02:10:29;;;;;;;0.60;0.30;;;;;;;5.45;75.30;97638.13;1087740;54;20356;-82
2022/01/09 02:11:32;;;;;;;1.02;0.47;;;;;;;5.45;75.27;97634.66;1087593;54;20030;-82
2022/01/09 02:12:36;;;;;;;1.23;0.40;;;;;;;5.51;75.18;97631.34;1087816;54;20069;-81
2022/01/09 02:13:40;;;;;;;1.05;0.30;;;;;;;5.43;75.56;97636.66;1087749;54;20042;-82
2022/01/09 02:14:47;;;;;;;1.38;0.40;;;;;;;5.45;75.39;97632.84;1087774;54;20030;-82
2022/01/09 02:15:49;;;;;;;2.38;0.40;;;;;;;5.50;74.95;97637.63;1087777;54;20762;-81
2022/01/09 02:16:54;;;;;;;1.13;0.30;;;;;;;5.51;74.86;97635.78;1087780;54;20098;-82
2022/01/09 02:17:56;;;;;;;0.70;0.40;;;;;;;5.59;74.67;97628.66;1087777;54;20038;-80
2022/01/09 02:19:02;;;;;;;0.82;0.30;;;;;;;5.62;74.57;97630.13;1087906;54;20801;-80
2022/01/09 02:20:08;;;;;;;0.73;0.30;;;;;;;5.55;75.02;97634.47;1087845;54;20068;-83
2022/01/09 02:21:12;;;;;;;0.68;0.22;;;;;;;5.58;74.91;97636.75;1087756;54;20038;-81
2022/01/09 02:22:15;;;;;;;0.85;0.30;;;;;;;5.53;74.79;97634.63;1087701;54;20038;-80
2022/01/09 02:23:20;;;;;;;0.82;0.38;;;;;;;5.62;74.63;97622.16;1087553;54;20094;-78
2022/01/09 02:24:23;;;;;;;0.43;0.28;;;;;;;5.58;74.93;97631.44;1087775;54;20042;-83
2022/01/09 02:25:28;;;;;;;0.88;0.35;;;;;;;5.51;75.15;97626.03;1087770;54;20042;-82
2022/01/09 02:26:29;;;;;;;1.65;0.30;;;;;;;5.52;75.30;97633.00;1087721;54;20500;-80
2022/01/09 02:27:33;;;;;;;0.75;0.30;;;;;;;5.57;75.33;97635.13;1087698;54;20033;-80
2022/01/09 02:28:35;;;;;;;1.13;0.30;;;;;;;5.58;75.27;97637.59;1087650;54;20034;-82
2022/01/09 02:29:40;;;;;;;1.77;0.50;;;;;;;5.53;75.47;97628.50;1087729;54;20022;-80
2022/01/09 02:30:43;;;;;;;1.05;0.32;;;;;;;5.58;75.31;97628.78;1087657;54;20042;-80
2022/01/09 02:31:47;;;;;;;0.93;0.40;;;;;;;5.54;75.55;97636.28;1087638;54;20043;-80
2022/01/09 02:32:49;;;;;;;2.08;0.32;;;;;;;5.53;75.72;97626.66;1087697;54;20038;-78
2022/01/09 02:33:53;;;;;;;0.80;0.30;;;;;;;5.59;75.57;97627.81;1091170;39;20658;-79
2022/01/09 02:34:55;;;;;;;1.08;0.30;;;;;;;5.42;75.96;97630.53;1087604;54;20034;-82
2022/01/09 02:36:01;;;;;;;0.60;0.30;;;;;;;5.43;75.62;97623.41;1087630;54;20041;-81
2022/01/09 02:37:03;;;;;;;0.52;0.30;;;;;;;5.44;75.24;97635.63;1087610;54;20039;-79
2022/01/09 02:38:09;;;;;;;0.55;0.35;;;;;;;5.59;75.00;97628.66;1087722;54;20030;-80
2022/01/09 02:39:13;;;;;;;0.60;0.30;;;;;;;5.67;74.77;97637.56;1087636;54;20035;-80
2022/01/09 02:40:15;;;;;;;0.85;0.35;;;;;;;5.56;75.08;97647.53;1088815;39;20534;-79
2022/01/09 02:41:19;;;;;;;0.57;0.30;;;;;;;5.53;75.30;97644.41;1087659;54;20407;-79
2022/01/09 02:42:23;;;;;;;1.77;0.38;;;;;;;5.56;75.01;97641.41;1090258;46;20042;-79
2022/01/09 02:43:28;;;;;;;0.68;0.30;;;;;;;5.51;74.79;97652.53;1087607;54;20145;-79
2022/01/09 02:44:29;;;;;;;0.80;0.40;;;;;;;5.50;74.75;97632.31;1087667;54;20041;-80
2022/01/09 02:45:33;;;;;;;0.80;0.40;;;;;;;5.57;74.87;97632.47;1087158;54;20041;-80
2022/01/09 02:46:47;;;;;;;0.30;0.30;;;;;;;5.56;74.61;97630.81;1087522;54;20030;-78
2022/01/09 02:47:55;;;;;;;0.95;0.35;;;;;;;5.61;74.44;97641.72;1087644;54;20086;-80
